sensor_id;sensor_type;location;lat;lon;timestamp;P1;durP1;ratioP1;P2;durP2;ratioP2
18776;SDS011;9517;51.174;4.160;2023-03-03T00:01:16;47.30;;;23.93;;
18776;SDS011;9517;51.174;4.160;2023-03-03T00:03:44;49.13;;;22.63;;
18776;SDS011;9517;51.174;4.160;2023-03-03T00:06:13;47.53;;;22.50;;
18776;SDS011;9517;51.174;4.160;2023-03-03T00:08:40;48.87;;;23.30;;
18776;SDS011;9517;51.174;4.160;2023-03-03T00:11:09;49.73;;;23.53;;
18776;SDS011;9517;51.174;4.160;2023-03-03T00:13:39;50.90;;;23.47;;
18776;SDS011;9517;51.174;4.160;2023-03-03T00:16:15;50.17;;;23.43;;
18776;SDS011;9517;51.174;4.160;2023-03-03T00:18:46;53.10;;;24.50;;
18776;SDS011;9517;51.174;4.160;2023-03-03T00:21:18;53.43;;;24.00;;
18776;SDS011;9517;51.174;4.160;2023-03-03T00:23:53;54.13;;;24.73;;
18776;SDS011;9517;51.174;4.160;2023-03-03T00:26:26;54.80;;;25.40;;
18776;SDS011;9517;51.174;4.160;2023-03-03T00:28:58;54.50;;;24.87;;
18776;SDS011;9517;51.174;4.160;2023-03-03T00:31:28;52.87;;;25.70;;
18776;SDS011;9517;51.174;4.160;2023-03-03T00:34:00;55.17;;;26.27;;
18776;SDS011;9517;51.174;4.160;2023-03-03T00:36:45;59.90;;;26.43;;
18776;SDS011;9517;51.174;4.160;2023-03-03T00:39:25;58.63;;;26.40;;
18776;SDS011;9517;51.174;4.160;2023-03-03T00:41:56;60.80;;;27.87;;
18776;SDS011;9517;51.174;4.160;2023-03-03T00:44:39;60.33;;;27.43;;
18776;SDS011;9517;51.174;4.160;2023-03-03T00:47:12;61.07;;;27.33;;
18776;SDS011;9517;51.174;4.160;2023-03-03T00:49:51;55.03;;;26.40;;
18776;SDS011;9517;51.174;4.160;2023-03-03T00:52:19;54.00;;;26.23;;
18776;SDS011;9517;51.174;4.160;2023-03-03T00:54:49;56.63;;;26.33;;
18776;SDS011;9517;51.174;4.160;2023-03-03T00:57:18;56.20;;;25.63;;
18776;SDS011;9517;51.174;4.160;2023-03-03T00:59:45;57.97;;;27.07;;
18776;SDS011;9517;51.174;4.160;2023-03-03T01:02:12;61.70;;;27.10;;
18776;SDS011;9517;51.174;4.160;2023-03-03T01:04:40;52.47;;;26.50;;
18776;SDS011;9517;51.174;4.160;2023-03-03T01:07:09;56.00;;;26.03;;
18776;SDS011;9517;51.174;4.160;2023-03-03T01:09:36;55.60;;;25.60;;
18776;SDS011;9517;51.174;4.160;2023-03-03T01:12:03;55.53;;;24.73;;
18776;SDS011;9517;51.174;4.160;2023-03-03T01:14:32;56.30;;;26.30;;
18776;SDS011;9517;51.174;4.160;2023-03-03T01:16:59;59.77;;;26.27;;
18776;SDS011;9517;51.174;4.160;2023-03-03T01:19:27;56.47;;;25.93;;
18776;SDS011;9517;51.174;4.160;2023-03-03T01:21:54;54.73;;;25.60;;
18776;SDS011;9517;51.174;4.160;2023-03-03T01:24:21;63.43;;;27.53;;
18776;SDS011;9517;51.174;4.160;2023-03-03T01:26:49;64.67;;;29.13;;
18776;SDS011;9517;51.174;4.160;2023-03-03T01:29:16;59.83;;;28.17;;
18776;SDS011;9517;51.174;4.160;2023-03-03T01:31:44;69.37;;;28.60;;
18776;SDS011;9517;51.174;4.160;2023-03-03T01:34:11;66.23;;;28.63;;
18776;SDS011;9517;51.174;4.160;2023-03-03T01:36:39;64.70;;;29.20;;
18776;SDS011;9517;51.174;4.160;2023-03-03T01:39:06;63.67;;;29.87;;
18776;SDS011;9517;51.174;4.160;2023-03-03T01:41:33;66.37;;;29.73;;
18776;SDS011;9517;51.174;4.160;2023-03-03T01:44:00;70.30;;;29.80;;
18776;SDS011;9517;51.174;4.160;2023-03-03T01:46:33;68.30;;;29.77;;
18776;SDS011;9517;51.174;4.160;2023-03-03T01:49:25;71.80;;;30.57;;
18776;SDS011;9517;51.174;4.160;2023-03-03T01:51:55;70.67;;;31.27;;
18776;SDS011;9517;51.174;4.160;2023-03-03T01:54:26;64.30;;;29.83;;
18776;SDS011;9517;51.174;4.160;2023-03-03T01:56:58;71.10;;;30.97;;
18776;SDS011;9517;51.174;4.160;2023-03-03T01:59:29;72.77;;;30.17;;
18776;SDS011;9517;51.174;4.160;2023-03-03T02:01:59;70.60;;;30.63;;
18776;SDS011;9517;51.174;4.160;2023-03-03T02:04:28;71.03;;;32.70;;
18776;SDS011;9517;51.174;4.160;2023-03-03T02:06:56;76.03;;;32.73;;
18776;SDS011;9517;51.174;4.160;2023-03-03T02:09:29;78.70;;;33.10;;
18776;SDS011;9517;51.174;4.160;2023-03-03T02:12:04;81.03;;;33.30;;
18776;SDS011;9517;51.174;4.160;2023-03-03T02:14:33;83.43;;;34.57;;
18776;SDS011;9517;51.174;4.160;2023-03-03T02:17:00;74.00;;;32.33;;
18776;SDS011;9517;51.174;4.160;2023-03-03T02:19:31;81.53;;;34.27;;
18776;SDS011;9517;51.174;4.160;2023-03-03T02:22:06;83.73;;;34.53;;
18776;SDS011;9517;51.174;4.160;2023-03-03T02:24:34;81.27;;;33.73;;
18776;SDS011;9517;51.174;4.160;2023-03-03T02:27:06;81.67;;;34.17;;
18776;SDS011;9517;51.174;4.160;2023-03-03T02:29:33;79.13;;;33.50;;
18776;SDS011;9517;51.174;4.160;2023-03-03T02:32:00;85.27;;;34.63;;
18776;SDS011;9517;51.174;4.160;2023-03-03T02:34:27;80.93;;;34.27;;
18776;SDS011;9517;51.174;4.160;2023-03-03T02:36:54;82.07;;;34.13;;
18776;SDS011;9517;51.174;4.160;2023-03-03T02:39:22;86.57;;;36.57;;
18776;SDS011;9517;51.174;4.160;2023-03-03T02:41:52;87.33;;;34.57;;
18776;SDS011;9517;51.174;4.160;2023-03-03T02:44:25;85.03;;;34.30;;
18776;SDS011;9517;51.174;4.160;2023-03-03T02:46:54;83.57;;;35.77;;
18776;SDS011;9517;51.174;4.160;2023-03-03T02:49:23;88.30;;;34.63;;
18776;SDS011;9517;51.174;4.160;2023-03-03T02:51:51;87.60;;;35.63;;
18776;SDS011;9517;51.174;4.160;2023-03-03T02:54:20;81.57;;;34.97;;
18776;SDS011;9517;51.174;4.160;2023-03-03T02:56:48;87.07;;;35.40;;
18776;SDS011;9517;51.174;4.160;2023-03-03T02:59:16;86.57;;;35.70;;
18776;SDS011;9517;51.174;4.160;2023-03-03T03:01:44;85.73;;;35.37;;
18776;SDS011;9517;51.174;4.160;2023-03-03T03:04:13;89.70;;;35.43;;
18776;SDS011;9517;51.174;4.160;2023-03-03T03:06:41;86.57;;;34.20;;
18776;SDS011;9517;51.174;4.160;2023-03-03T03:09:09;84.33;;;35.63;;
18776;SDS011;9517;51.174;4.160;2023-03-03T03:11:37;87.43;;;35.00;;
18776;SDS011;9517;51.174;4.160;2023-03-03T03:14:06;81.80;;;33.27;;
18776;SDS011;9517;51.174;4.160;2023-03-03T03:16:34;81.00;;;34.27;;
18776;SDS011;9517;51.174;4.160;2023-03-03T03:19:03;79.63;;;33.57;;
18776;SDS011;9517;51.174;4.160;2023-03-03T03:21:31;80.63;;;33.63;;
18776;SDS011;9517;51.174;4.160;2023-03-03T03:23:58;84.07;;;34.97;;
18776;SDS011;9517;51.174;4.160;2023-03-03T03:26:26;85.53;;;32.00;;
18776;SDS011;9517;51.174;4.160;2023-03-03T03:28:53;80.20;;;33.80;;
18776;SDS011;9517;51.174;4.160;2023-03-03T03:31:21;75.47;;;33.07;;
18776;SDS011;9517;51.174;4.160;2023-03-03T03:33:48;71.97;;;32.07;;
18776;SDS011;9517;51.174;4.160;2023-03-03T03:36:17;72.17;;;31.87;;
18776;SDS011;9517;51.174;4.160;2023-03-03T03:38:44;74.03;;;32.17;;
18776;SDS011;9517;51.174;4.160;2023-03-03T03:41:11;73.97;;;32.60;;
18776;SDS011;9517;51.174;4.160;2023-03-03T03:43:38;68.40;;;31.43;;
18776;SDS011;9517;51.174;4.160;2023-03-03T03:46:06;67.00;;;30.37;;
18776;SDS011;9517;51.174;4.160;2023-03-03T03:48:33;67.87;;;30.03;;
18776;SDS011;9517;51.174;4.160;2023-03-03T03:51:00;71.37;;;30.43;;
18776;SDS011;9517;51.174;4.160;2023-03-03T03:53:29;68.53;;;30.00;;
18776;SDS011;9517;51.174;4.160;2023-03-03T03:55:56;61.30;;;30.17;;
18776;SDS011;9517;51.174;4.160;2023-03-03T03:58:23;65.33;;;30.93;;
18776;SDS011;9517;51.174;4.160;2023-03-03T04:00:51;64.77;;;31.97;;
18776;SDS011;9517;51.174;4.160;2023-03-03T04:03:18;57.70;;;30.13;;
18776;SDS011;9517;51.174;4.160;2023-03-03T04:05:45;55.70;;;29.40;;
18776;SDS011;9517;51.174;4.160;2023-03-03T04:08:12;66.17;;;31.50;;
18776;SDS011;9517;51.174;4.160;2023-03-03T04:10:40;62.63;;;31.53;;
18776;SDS011;9517;51.174;4.160;2023-03-03T04:13:07;57.23;;;29.77;;
18776;SDS011;9517;51.174;4.160;2023-03-03T04:15:35;66.20;;;31.63;;
18776;SDS011;9517;51.174;4.160;2023-03-03T04:18:05;62.67;;;31.60;;
18776;SDS011;9517;51.174;4.160;2023-03-03T04:20:32;59.30;;;30.20;;
18776;SDS011;9517;51.174;4.160;2023-03-03T04:22:59;65.43;;;30.77;;
18776;SDS011;9517;51.174;4.160;2023-03-03T04:25:26;58.03;;;29.83;;
18776;SDS011;9517;51.174;4.160;2023-03-03T04:27:54;58.70;;;29.20;;
18776;SDS011;9517;51.174;4.160;2023-03-03T04:30:22;60.20;;;28.30;;
18776;SDS011;9517;51.174;4.160;2023-03-03T04:32:49;59.00;;;29.90;;
18776;SDS011;9517;51.174;4.160;2023-03-03T04:35:17;59.20;;;28.40;;
18776;SDS011;9517;51.174;4.160;2023-03-03T04:37:44;61.13;;;29.00;;
18776;SDS011;9517;51.174;4.160;2023-03-03T04:40:11;61.13;;;28.67;;
18776;SDS011;9517;51.174;4.160;2023-03-03T04:42:38;58.43;;;28.43;;
18776;SDS011;9517;51.174;4.160;2023-03-03T04:45:08;59.53;;;29.67;;
18776;SDS011;9517;51.174;4.160;2023-03-03T04:47:35;51.97;;;27.13;;
18776;SDS011;9517;51.174;4.160;2023-03-03T04:50:02;57.63;;;28.37;;
18776;SDS011;9517;51.174;4.160;2023-03-03T04:52:30;60.63;;;30.97;;
18776;SDS011;9517;51.174;4.160;2023-03-03T04:54:57;65.57;;;30.83;;
18776;SDS011;9517;51.174;4.160;2023-03-03T04:57:24;65.43;;;30.80;;
18776;SDS011;9517;51.174;4.160;2023-03-03T04:59:51;68.10;;;32.17;;
18776;SDS011;9517;51.174;4.160;2023-03-03T05:02:20;74.07;;;33.80;;
18776;SDS011;9517;51.174;4.160;2023-03-03T05:04:47;81.70;;;37.13;;
18776;SDS011;9517;51.174;4.160;2023-03-03T05:07:14;86.03;;;39.47;;
18776;SDS011;9517;51.174;4.160;2023-03-03T05:09:41;91.00;;;41.03;;
18776;SDS011;9517;51.174;4.160;2023-03-03T05:12:09;90.40;;;41.50;;
18776;SDS011;9517;51.174;4.160;2023-03-03T05:14:36;81.07;;;38.97;;
18776;SDS011;9517;51.174;4.160;2023-03-03T05:17:03;114.53;;;48.10;;
18776;SDS011;9517;51.174;4.160;2023-03-03T05:19:32;109.10;;;47.27;;
18776;SDS011;9517;51.174;4.160;2023-03-03T05:21:59;101.37;;;43.93;;
18776;SDS011;9517;51.174;4.160;2023-03-03T05:24:27;90.10;;;41.60;;
18776;SDS011;9517;51.174;4.160;2023-03-03T05:26:54;90.03;;;39.77;;
18776;SDS011;9517;51.174;4.160;2023-03-03T05:29:21;89.37;;;40.73;;
18776;SDS011;9517;51.174;4.160;2023-03-03T05:31:48;113.33;;;46.67;;
18776;SDS011;9517;51.174;4.160;2023-03-03T05:34:15;116.27;;;49.80;;
18776;SDS011;9517;51.174;4.160;2023-03-03T05:36:44;113.80;;;48.30;;
18776;SDS011;9517;51.174;4.160;2023-03-03T05:39:11;117.57;;;47.27;;
18776;SDS011;9517;51.174;4.160;2023-03-03T05:41:38;141.93;;;53.00;;
18776;SDS011;9517;51.174;4.160;2023-03-03T05:44:05;140.80;;;53.80;;
18776;SDS011;9517;51.174;4.160;2023-03-03T05:46:32;131.90;;;50.63;;
18776;SDS011;9517;51.174;4.160;2023-03-03T05:49:00;116.80;;;47.23;;
18776;SDS011;9517;51.174;4.160;2023-03-03T05:51:27;114.00;;;46.87;;
18776;SDS011;9517;51.174;4.160;2023-03-03T05:53:55;119.37;;;48.47;;
18776;SDS011;9517;51.174;4.160;2023-03-03T05:56:22;113.70;;;46.20;;
18776;SDS011;9517;51.174;4.160;2023-03-03T05:58:49;116.23;;;45.70;;
18776;SDS011;9517;51.174;4.160;2023-03-03T06:01:17;102.07;;;44.30;;
18776;SDS011;9517;51.174;4.160;2023-03-03T06:03:44;106.93;;;45.63;;
18776;SDS011;9517;51.174;4.160;2023-03-03T06:06:11;95.80;;;41.87;;
18776;SDS011;9517;51.174;4.160;2023-03-03T06:08:41;88.87;;;39.17;;
18776;SDS011;9517;51.174;4.160;2023-03-03T06:11:10;89.77;;;39.57;;
18776;SDS011;9517;51.174;4.160;2023-03-03T06:13:37;95.90;;;40.73;;
18776;SDS011;9517;51.174;4.160;2023-03-03T06:16:05;104.77;;;43.60;;
18776;SDS011;9517;51.174;4.160;2023-03-03T06:18:33;102.43;;;43.27;;
18776;SDS011;9517;51.174;4.160;2023-03-03T06:21:00;121.80;;;47.53;;
18776;SDS011;9517;51.174;4.160;2023-03-03T06:23:27;119.13;;;47.80;;
18776;SDS011;9517;51.174;4.160;2023-03-03T06:25:54;136.70;;;51.27;;
18776;SDS011;9517;51.174;4.160;2023-03-03T06:28:23;137.20;;;49.30;;
18776;SDS011;9517;51.174;4.160;2023-03-03T06:30:51;117.90;;;46.50;;
18776;SDS011;9517;51.174;4.160;2023-03-03T06:33:19;119.60;;;45.40;;
18776;SDS011;9517;51.174;4.160;2023-03-03T06:35:48;109.73;;;42.53;;
18776;SDS011;9517;51.174;4.160;2023-03-03T06:38:15;118.00;;;44.57;;
18776;SDS011;9517;51.174;4.160;2023-03-03T06:40:43;118.37;;;44.37;;
18776;SDS011;9517;51.174;4.160;2023-03-03T06:43:13;110.37;;;43.80;;
18776;SDS011;9517;51.174;4.160;2023-03-03T06:45:43;112.60;;;40.47;;
18776;SDS011;9517;51.174;4.160;2023-03-03T06:48:11;100.10;;;38.50;;
18776;SDS011;9517;51.174;4.160;2023-03-03T06:50:38;99.10;;;38.63;;
18776;SDS011;9517;51.174;4.160;2023-03-03T06:53:10;89.30;;;35.37;;
18776;SDS011;9517;51.174;4.160;2023-03-03T06:55:39;87.70;;;33.73;;
18776;SDS011;9517;51.174;4.160;2023-03-03T06:58:10;79.83;;;32.00;;
18776;SDS011;9517;51.174;4.160;2023-03-03T07:00:40;76.33;;;32.80;;
18776;SDS011;9517;51.174;4.160;2023-03-03T07:03:11;76.47;;;30.70;;
18776;SDS011;9517;51.174;4.160;2023-03-03T07:05:41;67.07;;;27.73;;
18776;SDS011;9517;51.174;4.160;2023-03-03T07:08:10;68.47;;;29.77;;
18776;SDS011;9517;51.174;4.160;2023-03-03T07:10:40;65.20;;;28.33;;
18776;SDS011;9517;51.174;4.160;2023-03-03T07:13:16;62.10;;;27.10;;
18776;SDS011;9517;51.174;4.160;2023-03-03T07:15:46;58.80;;;26.10;;
18776;SDS011;9517;51.174;4.160;2023-03-03T07:18:22;63.53;;;28.50;;
18776;SDS011;9517;51.174;4.160;2023-03-03T07:20:59;58.57;;;26.53;;
18776;SDS011;9517;51.174;4.160;2023-03-03T07:23:39;57.43;;;25.73;;
18776;SDS011;9517;51.174;4.160;2023-03-03T07:26:10;56.47;;;24.77;;
18776;SDS011;9517;51.174;4.160;2023-03-03T07:28:43;55.27;;;25.73;;
18776;SDS011;9517;51.174;4.160;2023-03-03T07:31:30;59.20;;;26.60;;
18776;SDS011;9517;51.174;4.160;2023-03-03T07:34:01;60.20;;;26.87;;
18776;SDS011;9517;51.174;4.160;2023-03-03T07:36:40;66.33;;;28.53;;
18776;SDS011;9517;51.174;4.160;2023-03-03T07:39:27;62.53;;;28.00;;
18776;SDS011;9517;51.174;4.160;2023-03-03T07:42:02;62.30;;;28.53;;
18776;SDS011;9517;51.174;4.160;2023-03-03T07:44:40;59.77;;;28.40;;
18776;SDS011;9517;51.174;4.160;2023-03-03T07:47:19;65.60;;;29.23;;
18776;SDS011;9517;51.174;4.160;2023-03-03T07:49:49;59.53;;;26.93;;
18776;SDS011;9517;51.174;4.160;2023-03-03T07:52:24;60.17;;;28.00;;
18776;SDS011;9517;51.174;4.160;2023-03-03T07:54:54;62.13;;;27.83;;
18776;SDS011;9517;51.174;4.160;2023-03-03T07:57:23;59.97;;;28.20;;
18776;SDS011;9517;51.174;4.160;2023-03-03T07:59:52;69.43;;;29.10;;
18776;SDS011;9517;51.174;4.160;2023-03-03T08:02:40;60.17;;;28.43;;
18776;SDS011;9517;51.174;4.160;2023-03-03T08:10:55;57.20;;;26.23;;
18776;SDS011;9517;51.174;4.160;2023-03-03T08:13:25;58.03;;;27.17;;
18776;SDS011;9517;51.174;4.160;2023-03-03T08:15:56;70.23;;;30.13;;
18776;SDS011;9517;51.174;4.160;2023-03-03T08:18:29;67.07;;;29.37;;
18776;SDS011;9517;51.174;4.160;2023-03-03T08:21:04;64.27;;;28.00;;
18776;SDS011;9517;51.174;4.160;2023-03-03T08:23:38;61.57;;;25.53;;
18776;SDS011;9517;51.174;4.160;2023-03-03T08:26:09;60.73;;;27.47;;
18776;SDS011;9517;51.174;4.160;2023-03-03T08:28:38;79.13;;;35.57;;
18776;SDS011;9517;51.174;4.160;2023-03-03T08:31:05;85.20;;;39.13;;
18776;SDS011;9517;51.174;4.160;2023-03-03T08:33:35;96.80;;;40.20;;
18776;SDS011;9517;51.174;4.160;2023-03-03T08:36:03;101.10;;;43.57;;
18776;SDS011;9517;51.174;4.160;2023-03-03T08:38:30;92.50;;;41.57;;
18776;SDS011;9517;51.174;4.160;2023-03-03T08:40:57;90.63;;;41.13;;
18776;SDS011;9517;51.174;4.160;2023-03-03T08:43:25;86.73;;;40.40;;
18776;SDS011;9517;51.174;4.160;2023-03-03T08:45:53;82.87;;;38.07;;
18776;SDS011;9517;51.174;4.160;2023-03-03T08:48:24;75.50;;;35.77;;
18776;SDS011;9517;51.174;4.160;2023-03-03T08:50:57;72.90;;;33.90;;
18776;SDS011;9517;51.174;4.160;2023-03-03T08:53:25;68.00;;;32.77;;
18776;SDS011;9517;51.174;4.160;2023-03-03T08:55:53;61.73;;;31.57;;
18776;SDS011;9517;51.174;4.160;2023-03-03T08:58:21;69.50;;;32.40;;
18776;SDS011;9517;51.174;4.160;2023-03-03T09:00:48;70.30;;;33.37;;
18776;SDS011;9517;51.174;4.160;2023-03-03T09:03:18;73.17;;;33.63;;
18776;SDS011;9517;51.174;4.160;2023-03-03T09:05:45;70.97;;;33.90;;
18776;SDS011;9517;51.174;4.160;2023-03-03T09:08:14;68.13;;;32.00;;
18776;SDS011;9517;51.174;4.160;2023-03-03T09:10:42;75.40;;;33.80;;
18776;SDS011;9517;51.174;4.160;2023-03-03T09:13:11;62.73;;;27.57;;
18776;SDS011;9517;51.174;4.160;2023-03-03T09:15:40;59.97;;;28.47;;
18776;SDS011;9517;51.174;4.160;2023-03-03T09:18:17;57.77;;;27.03;;
18776;SDS011;9517;51.174;4.160;2023-03-03T09:20:46;56.57;;;27.20;;
18776;SDS011;9517;51.174;4.160;2023-03-03T09:23:27;59.87;;;27.97;;
18776;SDS011;9517;51.174;4.160;2023-03-03T09:25:57;59.87;;;28.77;;
18776;SDS011;9517;51.174;4.160;2023-03-03T09:28:37;47.70;;;23.43;;
18776;SDS011;9517;51.174;4.160;2023-03-03T09:31:05;49.60;;;24.77;;
18776;SDS011;9517;51.174;4.160;2023-03-03T09:33:49;61.57;;;30.53;;
18776;SDS011;9517;51.174;4.160;2023-03-03T09:36:20;58.67;;;27.97;;
18776;SDS011;9517;51.174;4.160;2023-03-03T09:38:52;55.70;;;26.40;;
18776;SDS011;9517;51.174;4.160;2023-03-03T09:50:35;50.93;;;26.23;;
18776;SDS011;9517;51.174;4.160;2023-03-03T09:53:14;61.17;;;29.33;;
18776;SDS011;9517;51.174;4.160;2023-03-03T09:55:53;51.07;;;25.77;;
18776;SDS011;9517;51.174;4.160;2023-03-03T09:58:31;52.33;;;24.33;;
18776;SDS011;9517;51.174;4.160;2023-03-03T10:01:14;54.03;;;27.93;;
18776;SDS011;9517;51.174;4.160;2023-03-03T10:03:59;53.67;;;26.30;;
18776;SDS011;9517;51.174;4.160;2023-03-03T10:06:51;52.17;;;26.90;;
18776;SDS011;9517;51.174;4.160;2023-03-03T10:09:46;65.00;;;33.50;;
18776;SDS011;9517;51.174;4.160;2023-03-03T10:12:47;60.10;;;31.00;;
18776;SDS011;9517;51.174;4.160;2023-03-03T10:15:28;60.37;;;31.50;;
18776;SDS011;9517;51.174;4.160;2023-03-03T10:18:01;56.63;;;28.33;;
18776;SDS011;9517;51.174;4.160;2023-03-03T10:20:37;45.10;;;23.43;;
18776;SDS011;9517;51.174;4.160;2023-03-03T10:23:14;46.57;;;22.30;;
18776;SDS011;9517;51.174;4.160;2023-03-03T10:25:57;46.47;;;23.57;;
18776;SDS011;9517;51.174;4.160;2023-03-03T10:31:34;49.03;;;26.03;;
18776;SDS011;9517;51.174;4.160;2023-03-03T10:34:13;54.23;;;28.80;;
18776;SDS011;9517;51.174;4.160;2023-03-03T10:36:53;46.67;;;26.23;;
18776;SDS011;9517;51.174;4.160;2023-03-03T10:39:42;46.87;;;25.37;;
18776;SDS011;9517;51.174;4.160;2023-03-03T10:45:18;42.90;;;21.37;;
18776;SDS011;9517;51.174;4.160;2023-03-03T10:48:12;31.93;;;15.57;;
18776;SDS011;9517;51.174;4.160;2023-03-03T10:51:01;36.63;;;16.40;;
18776;SDS011;9517;51.174;4.160;2023-03-03T10:53:36;42.87;;;21.00;;
18776;SDS011;9517;51.174;4.160;2023-03-03T10:56:15;41.17;;;19.10;;
18776;SDS011;9517;51.174;4.160;2023-03-03T10:58:56;44.03;;;21.30;;
18776;SDS011;9517;51.174;4.160;2023-03-03T11:01:37;38.27;;;20.67;;
18776;SDS011;9517;51.174;4.160;2023-03-03T11:04:24;37.93;;;20.10;;
18776;SDS011;9517;51.174;4.160;2023-03-03T11:07:05;39.40;;;19.23;;
18776;SDS011;9517;51.174;4.160;2023-03-03T11:09:45;45.70;;;22.60;;
18776;SDS011;9517;51.174;4.160;2023-03-03T11:12:33;37.67;;;20.20;;
18776;SDS011;9517;51.174;4.160;2023-03-03T11:15:23;44.97;;;21.07;;
18776;SDS011;9517;51.174;4.160;2023-03-03T11:18:16;37.27;;;19.10;;
18776;SDS011;9517;51.174;4.160;2023-03-03T11:20:51;44.93;;;21.73;;
18776;SDS011;9517;51.174;4.160;2023-03-03T11:23:31;41.53;;;20.30;;
18776;SDS011;9517;51.174;4.160;2023-03-03T11:26:23;43.07;;;22.47;;
18776;SDS011;9517;51.174;4.160;2023-03-03T11:29:25;43.10;;;21.90;;
18776;SDS011;9517;51.174;4.160;2023-03-03T11:31:59;28.50;;;14.30;;
18776;SDS011;9517;51.174;4.160;2023-03-03T11:34:44;30.20;;;14.57;;
18776;SDS011;9517;51.174;4.160;2023-03-03T11:37:20;29.37;;;14.93;;
18776;SDS011;9517;51.174;4.160;2023-03-03T11:39:53;40.80;;;20.83;;
18776;SDS011;9517;51.174;4.160;2023-03-03T11:42:24;34.77;;;17.97;;
18776;SDS011;9517;51.174;4.160;2023-03-03T11:44:55;32.90;;;15.47;;
18776;SDS011;9517;51.174;4.160;2023-03-03T11:47:27;33.90;;;18.27;;
18776;SDS011;9517;51.174;4.160;2023-03-03T11:50:02;31.80;;;16.63;;
18776;SDS011;9517;51.174;4.160;2023-03-03T11:52:37;35.50;;;18.57;;
18776;SDS011;9517;51.174;4.160;2023-03-03T11:55:11;34.37;;;19.73;;
18776;SDS011;9517;51.174;4.160;2023-03-03T11:57:41;33.70;;;17.87;;
18776;SDS011;9517;51.174;4.160;2023-03-03T12:00:17;31.43;;;17.03;;
18776;SDS011;9517;51.174;4.160;2023-03-03T12:05:56;31.63;;;17.63;;
18776;SDS011;9517;51.174;4.160;2023-03-03T12:08:43;30.23;;;16.60;;
18776;SDS011;9517;51.174;4.160;2023-03-03T12:11:27;30.87;;;17.97;;
18776;SDS011;9517;51.174;4.160;2023-03-03T12:14:01;40.37;;;22.23;;
18776;SDS011;9517;51.174;4.160;2023-03-03T12:16:37;40.63;;;21.50;;
18776;SDS011;9517;51.174;4.160;2023-03-03T12:19:20;36.00;;;21.63;;
18776;SDS011;9517;51.174;4.160;2023-03-03T12:24:55;31.40;;;20.50;;
18776;SDS011;9517;51.174;4.160;2023-03-03T12:27:44;29.93;;;17.80;;
18776;SDS011;9517;51.174;4.160;2023-03-03T12:30:19;32.20;;;18.67;;
18776;SDS011;9517;51.174;4.160;2023-03-03T12:33:04;31.13;;;20.30;;
18776;SDS011;9517;51.174;4.160;2023-03-03T12:35:41;33.57;;;22.17;;
18776;SDS011;9517;51.174;4.160;2023-03-03T12:38:17;28.57;;;18.00;;
18776;SDS011;9517;51.174;4.160;2023-03-03T12:40:53;29.60;;;17.13;;
18776;SDS011;9517;51.174;4.160;2023-03-03T12:43:33;30.03;;;18.07;;
18776;SDS011;9517;51.174;4.160;2023-03-03T12:46:11;28.23;;;16.53;;
18776;SDS011;9517;51.174;4.160;2023-03-03T12:48:46;27.43;;;14.77;;
18776;SDS011;9517;51.174;4.160;2023-03-03T12:51:15;25.83;;;14.13;;
18776;SDS011;9517;51.174;4.160;2023-03-03T12:53:59;27.53;;;15.80;;
18776;SDS011;9517;51.174;4.160;2023-03-03T12:56:54;29.17;;;18.23;;
18776;SDS011;9517;51.174;4.160;2023-03-03T12:59:27;25.13;;;16.00;;
18776;SDS011;9517;51.174;4.160;2023-03-03T13:02:12;21.53;;;12.60;;
18776;SDS011;9517;51.174;4.160;2023-03-03T13:05:01;21.27;;;11.60;;
18776;SDS011;9517;51.174;4.160;2023-03-03T13:07:36;22.07;;;12.30;;
18776;SDS011;9517;51.174;4.160;2023-03-03T13:10:11;21.70;;;12.87;;
18776;SDS011;9517;51.174;4.160;2023-03-03T13:12:44;22.70;;;11.90;;
18776;SDS011;9517;51.174;4.160;2023-03-03T13:15:17;21.67;;;11.97;;
18776;SDS011;9517;51.174;4.160;2023-03-03T13:17:52;21.03;;;11.67;;
18776;SDS011;9517;51.174;4.160;2023-03-03T13:20:29;20.13;;;10.47;;
18776;SDS011;9517;51.174;4.160;2023-03-03T13:23:06;20.67;;;11.13;;
18776;SDS011;9517;51.174;4.160;2023-03-03T13:25:47;19.77;;;10.03;;
18776;SDS011;9517;51.174;4.160;2023-03-03T13:28:27;21.23;;;10.63;;
18776;SDS011;9517;51.174;4.160;2023-03-03T13:31:01;19.13;;;9.63;;
18776;SDS011;9517;51.174;4.160;2023-03-03T13:33:34;19.03;;;8.80;;
18776;SDS011;9517;51.174;4.160;2023-03-03T13:36:02;17.20;;;8.50;;
18776;SDS011;9517;51.174;4.160;2023-03-03T13:38:34;19.37;;;9.40;;
18776;SDS011;9517;51.174;4.160;2023-03-03T13:41:08;21.23;;;9.10;;
18776;SDS011;9517;51.174;4.160;2023-03-03T13:43:43;18.20;;;8.30;;
18776;SDS011;9517;51.174;4.160;2023-03-03T13:46:14;19.47;;;9.67;;
18776;SDS011;9517;51.174;4.160;2023-03-03T13:48:49;20.03;;;8.63;;
18776;SDS011;9517;51.174;4.160;2023-03-03T13:51:30;15.43;;;7.47;;
18776;SDS011;9517;51.174;4.160;2023-03-03T13:54:09;17.87;;;7.70;;
18776;SDS011;9517;51.174;4.160;2023-03-03T13:57:06;17.40;;;8.03;;
18776;SDS011;9517;51.174;4.160;2023-03-03T13:59:47;16.50;;;7.13;;
18776;SDS011;9517;51.174;4.160;2023-03-03T14:02:31;17.60;;;7.57;;
18776;SDS011;9517;51.174;4.160;2023-03-03T14:05:13;17.93;;;7.57;;
18776;SDS011;9517;51.174;4.160;2023-03-03T14:07:44;18.87;;;7.57;;
18776;SDS011;9517;51.174;4.160;2023-03-03T14:10:20;18.50;;;7.27;;
18776;SDS011;9517;51.174;4.160;2023-03-03T14:12:53;16.33;;;7.40;;
18776;SDS011;9517;51.174;4.160;2023-03-03T14:15:29;16.90;;;7.37;;
18776;SDS011;9517;51.174;4.160;2023-03-03T14:18:16;15.83;;;6.67;;
18776;SDS011;9517;51.174;4.160;2023-03-03T14:20:50;17.00;;;6.90;;
18776;SDS011;9517;51.174;4.160;2023-03-03T14:23:19;14.83;;;6.90;;
18776;SDS011;9517;51.174;4.160;2023-03-03T14:25:56;20.77;;;7.60;;
18776;SDS011;9517;51.174;4.160;2023-03-03T14:28:27;17.13;;;7.70;;
18776;SDS011;9517;51.174;4.160;2023-03-03T14:30:57;16.93;;;7.27;;
18776;SDS011;9517;51.174;4.160;2023-03-03T14:33:36;19.07;;;7.27;;
18776;SDS011;9517;51.174;4.160;2023-03-03T14:36:04;16.67;;;7.13;;
18776;SDS011;9517;51.174;4.160;2023-03-03T14:38:44;16.60;;;6.13;;
18776;SDS011;9517;51.174;4.160;2023-03-03T14:41:14;15.80;;;6.63;;
18776;SDS011;9517;51.174;4.160;2023-03-03T14:43:45;14.93;;;6.60;;
18776;SDS011;9517;51.174;4.160;2023-03-03T14:46:33;17.30;;;6.30;;
18776;SDS011;9517;51.174;4.160;2023-03-03T14:49:03;14.90;;;5.40;;
18776;SDS011;9517;51.174;4.160;2023-03-03T14:51:37;13.83;;;6.27;;
18776;SDS011;9517;51.174;4.160;2023-03-03T14:54:08;15.37;;;5.90;;
18776;SDS011;9517;51.174;4.160;2023-03-03T14:56:54;11.90;;;5.27;;
18776;SDS011;9517;51.174;4.160;2023-03-03T14:59:27;11.43;;;5.00;;
18776;SDS011;9517;51.174;4.160;2023-03-03T15:01:56;16.37;;;6.27;;
18776;SDS011;9517;51.174;4.160;2023-03-03T15:04:31;19.87;;;5.97;;
18776;SDS011;9517;51.174;4.160;2023-03-03T15:06:59;12.63;;;5.63;;
18776;SDS011;9517;51.174;4.160;2023-03-03T15:09:52;13.67;;;5.20;;
18776;SDS011;9517;51.174;4.160;2023-03-03T15:12:19;11.87;;;5.60;;
18776;SDS011;9517;51.174;4.160;2023-03-03T15:14:50;13.83;;;5.30;;
18776;SDS011;9517;51.174;4.160;2023-03-03T15:17:19;10.70;;;5.20;;
18776;SDS011;9517;51.174;4.160;2023-03-03T15:19:56;14.33;;;5.07;;
18776;SDS011;9517;51.174;4.160;2023-03-03T15:25:17;11.97;;;5.57;;
18776;SDS011;9517;51.174;4.160;2023-03-03T15:27:50;15.10;;;6.83;;
18776;SDS011;9517;51.174;4.160;2023-03-03T15:30:38;13.03;;;4.87;;
18776;SDS011;9517;51.174;4.160;2023-03-03T15:33:14;14.03;;;5.17;;
18776;SDS011;9517;51.174;4.160;2023-03-03T15:35:51;10.63;;;3.87;;
18776;SDS011;9517;51.174;4.160;2023-03-03T15:38:33;10.27;;;4.20;;